Athens, New York
Current Conditions -  °F | °C
As of 10:34 PM on Saturday 22 Nov 2014 (Local Time) from KPSF Reporting Station
Light Rain Light Rain  
Wind Chill: 29°   Ceiling: 2700
Heat Index: 34°   Visibility: 10mi
Dew Point: 28°   Wind: 6mph
Humidity: 79%   Direction: 240°WSW
Pressure: 30.05"   Gusts: NA
Location:  42.26°N, 73.81°W
Report Text: KPSF 230334Z AUTO 24005KT 10SM -RA BKN027 OVC060 01/M02 A3005 RMK AO2 UPB0259E04RAB04 P0000 T00111022 $
Loading
Personal Weather Stations






























Interactive Weather Map New forecast layout! Learn more

10-Day Weather Forecast

Advertisements
Track Severe Weather on mobile